createdAt,value
2023-01-28T00:04:40.353Z,89.64
2023-01-28T00:19:40.367Z,79.46
2023-01-28T00:34:41.430Z,68.26
2023-01-28T00:49:41.599Z,62.43
2023-01-28T01:04:42.296Z,59.14
2023-01-28T01:19:42.664Z,57.93
2023-01-28T01:34:43.211Z,58.33
2023-01-28T01:49:43.733Z,62.40
2023-01-28T02:04:44.837Z,71.01
2023-01-28T02:19:45.008Z,77.28
2023-01-28T02:34:46.167Z,87.21
2023-01-28T02:49:47.900Z,99.99
2023-01-28T03:04:48.560Z,99.99
2023-01-28T03:19:48.978Z,99.99
2023-01-28T03:34:49.387Z,99.99
2023-01-28T03:49:50.375Z,99.99
2023-01-28T04:04:50.728Z,99.99
2023-01-28T04:19:51.184Z,99.99
2023-01-28T04:34:53.066Z,99.99
2023-01-28T04:49:53.646Z,99.99
2023-01-28T05:04:54.286Z,99.99
2023-01-28T05:19:54.860Z,99.99
2023-01-28T05:34:55.898Z,99.99
2023-01-28T05:49:56.465Z,99.99
2023-01-28T06:04:56.737Z,99.99
2023-01-28T06:19:57.287Z,99.99
2023-01-28T06:34:58.315Z,99.99
2023-01-28T06:49:58.926Z,99.99
2023-01-28T07:04:59.573Z,99.99
2023-01-28T07:20:00.996Z,99.99
2023-01-28T07:35:02.047Z,99.99
2023-01-28T07:50:02.636Z,99.99
2023-01-28T08:05:03.542Z,99.99
2023-01-28T08:20:04.415Z,99.99
2023-01-28T08:35:05.048Z,99.99
2023-01-28T08:50:05.642Z,99.99
2023-01-28T09:05:06.251Z,99.99
2023-01-28T09:20:06.852Z,99.05
2023-01-28T09:35:07.512Z,99.99
2023-01-28T09:50:07.568Z,96.61
2023-01-28T10:05:08.165Z,96.04
2023-01-28T10:20:08.756Z,94.12
2023-01-28T10:35:09.387Z,91.31
2023-01-28T10:50:09.965Z,91.47
2023-01-28T11:05:10.571Z,90.29
2023-01-28T11:20:11.211Z,87.06
2023-01-28T11:35:13.709Z,86.12
2023-01-28T11:50:14.538Z,86.96
2023-01-28T12:05:14.963Z,87.89
2023-01-28T12:20:15.950Z,87.85
2023-01-28T12:35:17.200Z,83.83
2023-01-28T12:50:18.077Z,83.62
2023-01-28T13:05:18.383Z,84.52
2023-01-28T13:20:19.002Z,83.42
2023-01-28T13:35:19.587Z,83.62
2023-01-28T13:50:21.174Z,84.45
2023-01-28T14:05:21.796Z,83.48
2023-01-28T14:20:22.368Z,83.31
2023-01-28T14:35:23.040Z,80.60
2023-01-28T14:50:23.939Z,82.31
2023-01-28T15:05:24.249Z,84.60
2023-01-28T15:20:24.845Z,84.33
2023-01-28T15:35:25.460Z,85.06
2023-01-28T15:50:26.056Z,87.23
2023-01-28T16:05:27.068Z,88.32
2023-01-28T16:20:27.230Z,90.77
2023-01-28T16:35:38.001Z,91.81
2023-01-28T16:50:33.436Z,93.27
2023-01-28T17:05:34.442Z,93.59
2023-01-28T17:20:35.077Z,94.36
2023-01-28T17:35:35.247Z,93.52
2023-01-28T17:50:35.883Z,93.99
2023-01-28T18:05:37.019Z,94.76
2023-01-28T18:20:38.817Z,95.12
2023-01-28T18:35:40.099Z,96.23
2023-01-28T18:50:40.227Z,96.96
2023-01-28T19:05:40.377Z,97.23
2023-01-28T19:20:41.415Z,97.91
2023-01-28T19:35:42.846Z,98.72
2023-01-28T19:50:44.500Z,99.99
2023-01-28T20:05:45.714Z,99.99
2023-01-28T20:20:46.742Z,99.99
2023-01-28T20:35:47.334Z,99.99
2023-01-28T20:50:50.158Z,99.99
2023-01-28T21:05:50.389Z,99.99
2023-01-28T21:20:51.019Z,99.99
2023-01-28T21:35:51.514Z,99.99
2023-01-28T21:50:52.131Z,99.99
2023-01-28T22:05:52.716Z,99.99
2023-01-28T22:20:53.740Z,99.99
2023-01-28T22:35:53.930Z,99.99
2023-01-28T22:50:54.581Z,99.99
2023-01-28T23:05:55.238Z,99.99
2023-01-28T23:20:55.801Z,99.99
2023-01-28T23:35:56.827Z,99.99
2023-01-28T23:50:58.012Z,99.99
